createdAt,value
2022-10-06T00:03:20.218Z,101022.59
2022-10-06T00:06:24.052Z,101043.66
2022-10-06T00:09:28.287Z,101044.13
2022-10-06T00:12:31.394Z,101040.78
2022-10-06T00:15:34.809Z,101052.28
2022-10-06T00:18:37.892Z,101058.84
2022-10-06T00:21:40.813Z,101069.13
2022-10-06T00:24:45.770Z,101083.88
2022-10-06T00:27:51.978Z,101082.00
2022-10-06T00:30:56.341Z,101078.19
2022-10-06T00:33:59.667Z,101071.16
2022-10-06T00:37:02.697Z,101075.78
2022-10-06T00:40:09.826Z,101062.69
2022-10-06T00:43:48.627Z,101059.25
2022-10-06T00:46:54.584Z,101056.47
2022-10-06T00:49:57.760Z,101059.38
2022-10-06T00:53:01.085Z,101083.34
2022-10-06T00:56:05.786Z,101103.91
2022-10-06T00:59:12.165Z,101115.03
2022-10-06T01:02:20.002Z,101123.19
2022-10-06T01:05:29.458Z,101153.72
2022-10-06T01:08:33.668Z,101166.81
2022-10-06T01:11:38.931Z,101176.09
2022-10-06T01:14:42.877Z,101183.19
2022-10-06T01:17:52.859Z,101185.56
2022-10-06T01:21:03.224Z,101191.00
2022-10-06T01:24:09.631Z,101196.44
2022-10-06T01:27:15.385Z,101196.38
2022-10-06T01:30:23.507Z,101205.38
2022-10-06T01:33:26.497Z,101215.19
2022-10-06T01:36:29.447Z,101217.16
2022-10-06T01:39:33.732Z,101224.91
2022-10-06T01:43:27.149Z,101229.03
2022-10-06T01:46:31.101Z,101234.03
2022-10-06T01:49:34.375Z,101226.03
2022-10-06T01:52:37.800Z,101233.91
2022-10-06T01:55:42.411Z,101222.13
2022-10-06T01:58:47.994Z,101227.94
2022-10-06T02:01:51.879Z,101228.78
2022-10-06T02:04:56.343Z,101236.09
2022-10-06T02:07:59.332Z,101222.66
2022-10-06T02:11:09.588Z,101223.72
2022-10-06T02:14:18.098Z,101224.56
2022-10-06T02:17:21.028Z,101225.53
2022-10-06T02:20:24.215Z,101218.16
2022-10-06T02:23:27.886Z,101221.53
2022-10-06T02:26:32.234Z,101219.28
2022-10-06T02:29:35.986Z,101220.50
2022-10-06T02:32:44.076Z,101205.44
2022-10-06T02:35:48.109Z,101185.44
2022-10-06T02:38:51.134Z,101179.44
2022-10-06T02:41:56.238Z,101181.19
2022-10-06T02:44:59.409Z,101192.78
2022-10-06T02:48:02.457Z,101196.22
2022-10-06T02:51:09.467Z,101192.34
2022-10-06T02:54:13.755Z,101184.63
2022-10-06T02:57:18.226Z,101186.19
2022-10-06T03:00:21.349Z,101184.72
2022-10-06T03:03:24.522Z,101193.31
2022-10-06T03:06:30.913Z,101197.34
2022-10-06T03:09:45.453Z,101194.47
2022-10-06T03:12:49.742Z,101205.31
2022-10-06T03:15:53.358Z,101215.28
2022-10-06T03:18:57.370Z,101213.50
2022-10-06T03:22:00.422Z,101222.09
2022-10-06T03:25:12.834Z,101226.56
2022-10-06T03:28:18.139Z,101241.81
2022-10-06T03:31:21.495Z,101248.34
2022-10-06T03:34:25.084Z,101266.63
2022-10-06T03:37:29.690Z,101275.00
2022-10-06T03:40:32.651Z,101287.84
2022-10-06T03:43:39.161Z,101302.41
2022-10-06T03:46:42.517Z,101323.63
2022-10-06T03:49:45.553Z,101339.59
2022-10-06T03:52:51.472Z,101341.63
2022-10-06T03:56:03.689Z,101351.56
2022-10-06T03:59:10.960Z,101329.31
2022-10-06T04:02:15.278Z,101318.72
2022-10-06T04:05:19.511Z,101315.97
2022-10-06T04:08:22.931Z,101347.94
2022-10-06T04:11:29.324Z,101364.16
2022-10-06T04:14:33.618Z,101384.66
2022-10-06T04:17:37.236Z,101387.75
2022-10-06T04:20:40.605Z,101401.47
2022-10-06T04:23:44.060Z,101422.38
2022-10-06T04:26:49.024Z,101431.19
2022-10-06T04:29:56.332Z,101458.72
2022-10-06T04:32:59.291Z,101488.56
2022-10-06T04:36:05.822Z,101487.13
2022-10-06T04:39:11.424Z,101504.78
2022-10-06T04:42:15.600Z,101517.94
2022-10-06T04:45:21.177Z,101520.56
2022-10-06T04:48:24.576Z,101529.41
2022-10-06T04:51:29.694Z,101548.19
2022-10-06T04:54:34.754Z,101573.03
2022-10-06T04:57:40.118Z,101570.72
2022-10-06T05:00:44.492Z,101563.81
2022-10-06T05:03:50.462Z,101577.19
2022-10-06T05:06:53.999Z,101575.06
2022-10-06T05:09:57.350Z,101594.63
2022-10-06T05:13:00.508Z,101598.72
2022-10-06T05:16:08.583Z,101608.53
2022-10-06T05:19:12.732Z,101628.56
2022-10-06T05:22:16.675Z,101634.78
2022-10-06T05:25:20.578Z,101635.16
2022-10-06T05:28:26.046Z,101649.47
2022-10-06T05:31:33.090Z,101660.22
2022-10-06T05:34:39.301Z,101657.22
2022-10-06T05:37:44.105Z,101672.50
2022-10-06T05:40:47.128Z,101677.75
2022-10-06T05:43:53.394Z,101692.94
2022-10-06T05:46:57.850Z,101695.44
2022-10-06T05:50:00.967Z,101698.19
2022-10-06T05:53:03.935Z,101700.19
2022-10-06T05:56:09.144Z,101717.97
2022-10-06T05:59:12.592Z,101736.88
2022-10-06T06:02:17.694Z,101739.75
2022-10-06T06:05:21.551Z,101755.22
2022-10-06T06:08:24.819Z,101763.44
2022-10-06T06:11:28.774Z,101772.72
2022-10-06T06:14:50.459Z,101779.88
2022-10-06T06:18:01.247Z,101789.63
2022-10-06T06:21:07.061Z,101812.41
2022-10-06T06:24:10.954Z,101814.09
2022-10-06T06:27:14.415Z,101827.44
2022-10-06T06:30:17.893Z,101836.34
2022-10-06T06:33:22.406Z,101847.69
2022-10-06T06:36:28.336Z,101850.56
2022-10-06T06:39:31.465Z,101856.13
2022-10-06T06:42:34.446Z,101854.34
2022-10-06T06:46:03.176Z,101859.06
2022-10-06T06:49:23.931Z,101870.31
2022-10-06T06:52:32.185Z,101874.09
2022-10-06T06:55:36.164Z,101878.28
2022-10-06T06:58:49.161Z,101887.63
2022-10-06T07:01:53.910Z,101891.78
2022-10-06T07:05:04.533Z,101899.38
2022-10-06T07:08:25.230Z,101915.13
2022-10-06T07:11:31.865Z,101916.59
2022-10-06T07:14:35.685Z,101923.63
2022-10-06T07:17:57.984Z,101923.28
2022-10-06T07:21:20.158Z,101931.91
2022-10-06T07:24:41.332Z,101944.09
2022-10-06T07:27:50.992Z,101936.94
2022-10-06T07:30:59.269Z,101949.13
2022-10-06T07:34:04.062Z,101961.72
2022-10-06T07:37:08.573Z,101960.03
2022-10-06T07:40:12.447Z,101964.44
2022-10-06T07:43:15.653Z,101969.19
2022-10-06T07:46:21.623Z,101984.69
2022-10-06T07:49:47.582Z,101978.19
2022-10-06T07:52:51.959Z,101990.88
2022-10-06T07:55:55.127Z,101990.44
2022-10-06T07:59:00.474Z,101993.38
2022-10-06T08:02:03.505Z,101998.31
2022-10-06T08:05:08.333Z,102004.00
2022-10-06T08:08:14.750Z,102030.59
2022-10-06T08:11:17.674Z,102029.31
2022-10-06T08:14:20.677Z,102036.88
2022-10-06T08:17:23.633Z,102035.84
2022-10-06T08:20:27.606Z,102046.75
2022-10-06T08:23:32.956Z,102055.75
2022-10-06T08:26:35.922Z,102054.13
2022-10-06T08:29:38.893Z,102061.03
2022-10-06T08:32:43.276Z,102070.25
2022-10-06T08:35:46.320Z,102076.78
2022-10-06T08:38:51.175Z,102096.88
2022-10-06T08:41:55.865Z,102101.84
2022-10-06T08:45:03.629Z,102110.25
2022-10-06T08:48:13.892Z,102105.81
2022-10-06T08:51:34.410Z,102121.25
2022-10-06T08:54:48.053Z,102111.53
2022-10-06T08:58:21.282Z,102116.47
2022-10-06T09:01:27.493Z,102123.03
2022-10-06T09:04:33.335Z,102133.75
2022-10-06T09:07:48.276Z,102151.41
2022-10-06T09:11:10.291Z,102144.50
2022-10-06T09:14:19.374Z,102159.41
2022-10-06T09:17:28.409Z,102144.28
2022-10-06T09:20:36.081Z,102149.72
2022-10-06T09:23:48.337Z,102164.13
2022-10-06T09:26:54.513Z,102160.53
2022-10-06T09:29:59.680Z,102162.59
2022-10-06T09:33:05.816Z,102167.59
2022-10-06T09:36:10.979Z,102185.22
2022-10-06T09:39:24.711Z,102178.44
2022-10-06T09:42:35.585Z,102182.59
2022-10-06T09:45:38.665Z,102186.50
2022-10-06T09:48:41.636Z,102191.50
2022-10-06T09:52:05.050Z,102191.59
2022-10-06T09:55:13.299Z,102196.31
2022-10-06T09:59:18.562Z,102200.63
2022-10-06T10:02:31.926Z,102197.78
2022-10-06T10:06:02.413Z,102208.22
2022-10-06T10:09:27.112Z,102200.25
2022-10-06T10:12:38.789Z,102202.06
2022-10-06T10:16:16.933Z,102214.28
2022-10-06T10:19:32.283Z,102217.28
2022-10-06T10:22:38.478Z,102223.84
2022-10-06T10:26:14.439Z,102219.69
2022-10-06T10:29:39.934Z,102230.69
2022-10-06T10:32:54.739Z,102219.56
2022-10-06T10:36:00.533Z,102229.38
2022-10-06T10:39:12.187Z,102238.72
2022-10-06T10:42:20.854Z,102246.28
2022-10-06T10:45:28.488Z,102240.66
2022-10-06T10:48:40.551Z,102241.84
2022-10-06T10:51:51.871Z,102242.22
2022-10-06T10:55:16.152Z,102238.59
2022-10-06T10:58:24.492Z,102235.09
2022-10-06T11:01:36.134Z,102239.59
2022-10-06T11:04:47.134Z,102251.78
2022-10-06T11:07:55.788Z,102246.72
2022-10-06T11:11:02.012Z,102255.34
2022-10-06T11:14:17.503Z,102245.56
2022-10-06T11:17:40.051Z,102246.75
2022-10-06T11:20:52.267Z,102248.28
2022-10-06T11:24:01.353Z,102254.28
2022-10-06T11:27:18.559Z,102263.22
2022-10-06T11:30:26.386Z,102264.28
2022-10-06T11:33:35.859Z,102269.09
2022-10-06T11:36:48.079Z,102263.72
2022-10-06T11:40:00.437Z,102266.81
2022-10-06T11:43:12.557Z,102265.41
2022-10-06T11:46:32.065Z,102275.56
2022-10-06T11:49:51.932Z,102276.50
2022-10-06T11:52:56.763Z,102279.13
2022-10-06T11:56:37.234Z,102260.59
2022-10-06T12:00:04.913Z,102277.19
2022-10-06T12:04:05.503Z,102283.59
2022-10-06T12:07:13.051Z,102286.75
2022-10-06T12:10:37.035Z,102285.72
2022-10-06T12:14:44.492Z,102286.91
2022-10-06T12:17:23.537Z,102288.59
2022-10-06T12:20:38.522Z,102290.88
2022-10-06T12:23:58.466Z,102275.69
2022-10-06T12:27:27.390Z,102285.91
2022-10-06T12:30:45.371Z,102286.53
2022-10-06T12:33:50.442Z,102278.03
2022-10-06T12:37:42.746Z,102292.00
2022-10-06T12:40:55.137Z,102286.28
2022-10-06T12:44:00.692Z,102290.53
2022-10-06T12:47:09.656Z,102294.22
2022-10-06T12:50:19.002Z,102295.13
2022-10-06T12:53:27.544Z,102298.44
2022-10-06T12:56:34.208Z,102310.47
2022-10-06T12:59:45.176Z,102302.09
2022-10-06T13:03:16.780Z,102305.19
2022-10-06T13:06:27.257Z,102303.97
2022-10-06T13:09:31.110Z,102299.16
2022-10-06T13:12:40.459Z,102305.81
2022-10-06T13:15:48.203Z,102299.63
2022-10-06T13:18:56.407Z,102298.09
2022-10-06T13:22:03.938Z,102306.22
2022-10-06T13:25:13.675Z,102302.28
2022-10-06T13:28:41.050Z,102301.38
2022-10-06T13:31:52.621Z,102313.22
2022-10-06T13:34:56.761Z,102311.31
2022-10-06T13:38:02.568Z,102305.19
2022-10-06T13:41:22.774Z,102319.19
2022-10-06T13:44:35.527Z,102316.47
2022-10-06T13:47:40.855Z,102320.19
2022-10-06T13:50:49.016Z,102326.28
2022-10-06T13:53:52.483Z,102315.94
2022-10-06T13:56:55.952Z,102324.75
2022-10-06T14:00:29.857Z,102332.59
2022-10-06T14:03:40.876Z,102322.81
2022-10-06T14:06:54.295Z,102335.25
2022-10-06T14:09:58.906Z,102324.03
2022-10-06T14:13:47.581Z,102317.03
2022-10-06T14:17:04.469Z,102330.31
2022-10-06T14:20:37.349Z,102329.19
2022-10-06T14:23:49.599Z,102340.16
2022-10-06T14:26:54.914Z,102334.94
2022-10-06T14:29:58.261Z,102332.34
2022-10-06T14:33:01.768Z,102343.72
2022-10-06T14:36:06.715Z,102345.53
2022-10-06T14:39:13.736Z,102344.16
2022-10-06T14:42:17.343Z,102341.56
2022-10-06T14:45:20.352Z,102351.00
2022-10-06T14:48:23.454Z,102344.94
2022-10-06T14:51:29.277Z,102338.84
2022-10-06T14:54:35.162Z,102347.53
2022-10-06T14:57:38.103Z,102348.50
2022-10-06T15:00:43.267Z,102345.16
2022-10-06T15:03:52.764Z,102344.53
2022-10-06T15:07:15.147Z,102343.38
2022-10-06T15:10:18.525Z,102336.53
2022-10-06T15:13:22.007Z,102345.72
2022-10-06T15:16:27.151Z,102350.50
2022-10-06T15:19:30.192Z,102349.00
2022-10-06T15:22:34.494Z,102344.16
2022-10-06T15:25:54.983Z,102354.69
2022-10-06T15:29:03.910Z,102348.94
2022-10-06T15:32:07.316Z,102355.84
2022-10-06T15:35:10.670Z,102350.53
2022-10-06T15:38:14.927Z,102352.25
2022-10-06T15:41:18.104Z,102351.59
2022-10-06T15:44:22.087Z,102354.38
2022-10-06T15:47:25.020Z,102356.75
2022-10-06T15:50:28.476Z,102355.91
2022-10-06T15:53:32.930Z,102356.56
2022-10-06T15:56:37.513Z,102363.50
2022-10-06T15:59:40.739Z,102362.66
2022-10-06T16:02:44.840Z,102367.75
2022-10-06T16:05:51.718Z,102357.22
2022-10-06T16:08:59.043Z,102359.56
2022-10-06T16:12:07.765Z,102361.25
2022-10-06T16:15:11.629Z,102374.34
2022-10-06T16:18:14.662Z,102376.25
2022-10-06T16:21:17.908Z,102373.97
2022-10-06T16:24:24.005Z,102383.09
2022-10-06T16:27:30.086Z,102383.19
2022-10-06T16:30:36.199Z,102386.13
2022-10-06T16:33:39.119Z,102386.13
2022-10-06T16:36:44.370Z,102382.56
2022-10-06T16:39:48.613Z,102393.22
2022-10-06T16:42:52.750Z,102390.84
2022-10-06T16:46:02.141Z,102394.41
2022-10-06T16:49:07.360Z,102393.63
2022-10-06T16:52:10.333Z,102391.13
2022-10-06T16:55:14.722Z,102403.25
2022-10-06T16:58:17.670Z,102397.53
2022-10-06T17:01:23.044Z,102406.50
2022-10-06T17:04:26.735Z,102407.88
2022-10-06T17:07:29.944Z,102405.25
2022-10-06T17:10:34.280Z,102403.59
2022-10-06T17:13:39.987Z,102413.75
2022-10-06T17:16:45.854Z,102410.91
2022-10-06T17:19:48.841Z,102417.28
2022-10-06T17:22:51.744Z,102413.47
2022-10-06T17:26:12.425Z,102403.00
2022-10-06T17:29:18.662Z,102406.41
2022-10-06T17:32:22.295Z,102402.34
2022-10-06T17:35:25.328Z,102398.06
2022-10-06T17:38:30.708Z,102396.09
2022-10-06T17:41:37.287Z,102392.13
2022-10-06T17:44:40.338Z,102391.38
2022-10-06T17:47:43.286Z,102391.13
2022-10-06T17:50:59.651Z,102380.66
2022-10-06T17:54:05.695Z,102376.91
2022-10-06T17:57:10.040Z,102376.00
2022-10-06T18:00:22.100Z,102381.28
2022-10-06T18:07:18.810Z,102387.09
2022-10-06T18:10:40.196Z,102381.56
2022-10-06T18:13:49.535Z,102368.13
2022-10-06T18:17:09.757Z,102370.72
2022-10-06T18:20:13.382Z,102379.44
2022-10-06T18:23:16.921Z,102380.03
2022-10-06T18:26:21.078Z,102381.03
2022-10-06T18:29:30.265Z,102384.72
2022-10-06T18:36:15.188Z,102377.19
2022-10-06T18:39:18.474Z,102371.47
2022-10-06T18:42:21.561Z,102368.09
2022-10-06T18:45:43.405Z,102370.97
2022-10-06T18:48:59.896Z,102368.88
2022-10-06T18:52:05.252Z,102361.25
2022-10-06T18:55:09.301Z,102362.47
2022-10-06T18:58:13.005Z,102354.78
2022-10-06T19:01:17.473Z,102355.88
2022-10-06T19:04:23.204Z,102352.88
2022-10-06T19:07:30.965Z,102355.78
2022-10-06T19:10:55.383Z,102369.19
2022-10-06T19:13:59.897Z,102364.16
2022-10-06T19:17:08.993Z,102359.13
2022-10-06T19:20:12.013Z,102373.41
2022-10-06T19:23:15.012Z,102371.16
2022-10-06T19:26:21.855Z,102372.75
2022-10-06T19:29:26.856Z,102374.91
2022-10-06T19:32:32.912Z,102370.78
2022-10-06T19:35:35.926Z,102364.66
2022-10-06T19:38:40.318Z,102372.78
2022-10-06T19:42:01.420Z,102374.97
2022-10-06T19:45:05.631Z,102371.75
2022-10-06T19:48:10.819Z,102366.78
2022-10-06T19:51:16.669Z,102372.22
2022-10-06T19:54:20.174Z,102367.81
2022-10-06T19:57:23.335Z,102372.44
2022-10-06T20:00:26.335Z,102368.19
2022-10-06T20:03:31.425Z,102375.34
2022-10-06T20:06:35.536Z,102379.78
2022-10-06T20:09:38.992Z,102386.88
2022-10-06T20:12:42.335Z,102386.19
2022-10-06T20:15:45.255Z,102384.66
2022-10-06T20:18:50.655Z,102386.69
2022-10-06T20:21:54.430Z,102388.53
2022-10-06T20:24:57.358Z,102375.75
2022-10-06T20:28:38.502Z,102379.25
2022-10-06T20:31:48.807Z,102385.63
2022-10-06T20:34:58.615Z,102382.28
2022-10-06T20:38:13.282Z,102372.69
2022-10-06T20:41:29.964Z,102381.44
2022-10-06T20:44:44.040Z,102376.50
2022-10-06T20:47:55.754Z,102383.63
2022-10-06T20:51:01.821Z,102371.69
2022-10-06T20:54:19.144Z,102376.97
2022-10-06T20:57:34.100Z,102378.81
2022-10-06T21:01:06.522Z,102384.25
2022-10-06T21:04:43.658Z,102373.13
2022-10-06T21:08:18.163Z,102380.13
2022-10-06T21:11:54.472Z,102376.97
2022-10-06T21:15:29.179Z,102370.09
2022-10-06T21:18:38.304Z,102371.88
2022-10-06T21:21:56.175Z,102369.47
2022-10-06T21:25:12.249Z,102365.38
2022-10-06T21:28:15.743Z,102362.75
2022-10-06T21:31:23.227Z,102362.97
2022-10-06T21:34:26.815Z,102358.81
2022-10-06T21:37:30.494Z,102350.34
2022-10-06T21:40:37.727Z,102348.66
2022-10-06T21:43:40.882Z,102337.28
2022-10-06T21:46:48.258Z,102326.13
2022-10-06T21:49:51.380Z,102320.16
2022-10-06T21:52:54.421Z,102332.38
2022-10-06T21:55:58.884Z,102334.13
2022-10-06T21:59:02.553Z,102327.41
2022-10-06T22:02:05.639Z,102323.09
2022-10-06T22:05:09.282Z,102329.22
2022-10-06T22:08:13.366Z,102333.72
2022-10-06T22:11:21.058Z,102333.19
2022-10-06T22:14:24.106Z,102329.00
2022-10-06T22:17:27.256Z,102321.97
2022-10-06T22:20:32.020Z,102323.78
2022-10-06T22:23:35.043Z,102318.94
2022-10-06T22:26:41.843Z,102312.03
2022-10-06T22:29:44.974Z,102314.03
2022-10-06T22:32:49.100Z,102313.97
2022-10-06T22:35:52.402Z,102312.28
2022-10-06T22:38:57.081Z,102316.72
2022-10-06T22:42:02.055Z,102303.88
2022-10-06T22:45:06.470Z,102307.53
2022-10-06T22:48:09.771Z,102308.44
2022-10-06T22:51:12.777Z,102314.69
2022-10-06T22:54:19.862Z,102304.41
2022-10-06T22:57:24.617Z,102296.69
2022-10-06T23:00:28.308Z,102308.06
2022-10-06T23:03:31.840Z,102302.09
2022-10-06T23:06:34.962Z,102311.66
2022-10-06T23:09:37.982Z,102298.88
2022-10-06T23:12:42.590Z,102300.72
2022-10-06T23:15:45.632Z,102289.44
2022-10-06T23:18:49.405Z,102296.44
2022-10-06T23:21:52.832Z,102295.75
2022-10-06T23:24:55.843Z,102281.69
2022-10-06T23:28:00.272Z,102296.63
2022-10-06T23:31:06.315Z,102281.03
2022-10-06T23:34:09.677Z,102277.63
2022-10-06T23:37:12.807Z,102277.06
2022-10-06T23:40:15.972Z,102284.03
2022-10-06T23:43:20.538Z,102279.88
2022-10-06T23:46:23.610Z,102280.88
2022-10-06T23:49:26.619Z,102271.50
2022-10-06T23:52:29.675Z,102270.75
2022-10-06T23:55:32.803Z,102281.13
2022-10-06T23:58:37.349Z,102275.09
